Terminal Aerodrome Forecast
Issued by NWS Charleston, WV

Current Version | Previous Version | Graphics & Text | Print | Product List | Glossary On
Versions: 1 2 3 4 5 6 7 8 9 10 11 12 13 14 15 16 17 18 19 20 21
000
FTUS41 KRLX 242326
TAFBKW
TAF
KBKW 242326Z 2500/2524 20003KT P6SM SCT050
     FM250400 00000KT P6SM SCT090
     FM250800 18004KT P6SM BKN040
     FM251400 26007KT P6SM BKN040
     FM252100 23006KT P6SM SCT110=

USA.gov is the U.S. government's official web portal to all federal, state and local government web resources and services.